createdAt,value
2024-05-09T00:00:36.514Z,95181.09
2024-05-09T00:03:07.424Z,95173.22
2024-05-09T00:05:35.075Z,95179.44
2024-05-09T00:08:02.381Z,95174.06
2024-05-09T00:10:35.969Z,95178.91
2024-05-09T00:13:11.080Z,95181.59
2024-05-09T00:15:39.025Z,95180.50
2024-05-09T00:18:07.615Z,95182.66
2024-05-09T00:20:39.347Z,95177.81
2024-05-09T00:23:09.732Z,95172.69
2024-05-09T00:25:38.070Z,95175.38
2024-05-09T00:28:06.034Z,95173.97
2024-05-09T00:30:35.959Z,95170.22
2024-05-09T00:33:09.003Z,95177.25
2024-05-09T00:35:38.683Z,95165.63
2024-05-09T00:38:06.393Z,95171.28
2024-05-09T00:40:40.535Z,95164.81
2024-05-09T00:43:10.958Z,95160.47
2024-05-09T00:45:38.363Z,95167.75
2024-05-09T00:48:08.570Z,95161.28
2024-05-09T00:50:40.798Z,95163.16
2024-05-09T00:53:11.473Z,95158.81
2024-05-09T00:55:40.077Z,95153.69
2024-05-09T00:58:11.935Z,95155.56
2024-05-09T01:00:41.470Z,95158.00
2024-05-09T01:03:12.091Z,95156.38
2024-05-09T01:05:41.480Z,95143.13
2024-05-09T01:08:10.494Z,95147.72
2024-05-09T01:10:38.528Z,95153.94
2024-05-09T01:13:06.471Z,95142.88
2024-05-09T01:15:35.043Z,95152.03
2024-05-09T01:18:08.699Z,95146.88
2024-05-09T01:20:41.934Z,95152.53
2024-05-09T01:23:13.940Z,95150.66
2024-05-09T01:25:43.984Z,95143.59
2024-05-09T01:28:11.451Z,95145.44
2024-05-09T01:30:38.826Z,95149.00
2024-05-09T01:33:09.026Z,95135.50
2024-05-09T01:35:38.313Z,95143.59
2024-05-09T01:38:05.597Z,95149.00
2024-05-09T01:40:37.874Z,95144.63
2024-05-09T01:43:09.104Z,95145.44
2024-05-09T01:45:37.334Z,95146.53
2024-05-09T01:48:05.071Z,95143.00
2024-05-09T01:50:38.516Z,95145.72
2024-05-09T01:53:10.186Z,95144.06
2024-05-09T01:55:37.733Z,95149.47
2024-05-09T01:58:05.120Z,95148.66
2024-05-09T02:00:38.904Z,95143.50
2024-05-09T02:03:13.573Z,95147.84
2024-05-09T02:05:44.270Z,95140.56
2024-05-09T02:08:17.004Z,95140.78
2024-05-09T02:10:45.560Z,95139.97
2024-05-09T02:13:13.587Z,95141.03
2024-05-09T02:15:41.319Z,95138.31
2024-05-09T02:18:08.975Z,95142.66
2024-05-09T02:20:39.122Z,95152.91
2024-05-09T02:23:07.034Z,95147.53
2024-05-09T02:25:34.787Z,95152.91
2024-05-09T02:28:02.466Z,95148.56
2024-05-09T02:30:38.064Z,95148.34
2024-05-09T02:33:10.493Z,95147.53
2024-05-09T02:35:39.870Z,95150.22
2024-05-09T02:38:08.619Z,95155.84
2024-05-09T02:40:38.314Z,95152.34
2024-05-09T02:43:07.882Z,95152.34
2024-05-09T02:45:35.523Z,95148.56
2024-05-09T02:48:03.071Z,95149.72
2024-05-09T02:50:37.252Z,95143.84
2024-05-09T02:53:11.410Z,95146.88
2024-05-09T02:55:39.152Z,95146.88
2024-05-09T02:58:10.470Z,95145.72
2024-05-09T03:00:41.219Z,95135.97
2024-05-09T03:03:13.446Z,95138.91
2024-05-09T03:05:45.999Z,95134.84
2024-05-09T03:08:13.644Z,95142.13
2024-05-09T03:10:40.944Z,95139.66
2024-05-09T03:13:12.666Z,95136.94
2024-05-09T03:15:40.913Z,95149.88
2024-05-09T03:18:08.805Z,95143.66
2024-05-09T03:20:36.995Z,95146.34
2024-05-09T03:23:06.429Z,95140.13
2024-05-09T03:25:34.034Z,95143.66
2024-05-09T03:28:01.448Z,95145.06
2024-05-09T03:30:38.444Z,95147.16
2024-05-09T03:33:15.764Z,95147.44
2024-05-09T03:35:44.229Z,95140.41
2024-05-09T03:38:11.792Z,95140.41
2024-05-09T03:40:45.943Z,95139.34
2024-05-09T03:43:13.546Z,95141.69
2024-05-09T03:45:40.686Z,95142.50
2024-05-09T03:48:08.454Z,95150.38
2024-05-09T03:50:36.952Z,95144.38
2024-05-09T03:53:04.934Z,95135.47
2024-05-09T03:55:33.501Z,95142.75
2024-05-09T03:58:00.640Z,95142.75
2024-05-09T04:00:35.598Z,95137.63
2024-05-09T04:03:09.314Z,95146.78
2024-05-09T04:05:40.574Z,95144.91
2024-05-09T04:08:09.502Z,95149.25
2024-05-09T04:10:36.847Z,95151.13
2024-05-09T04:13:04.482Z,95147.59
2024-05-09T04:15:32.303Z,95153.00
2024-05-09T04:18:00.209Z,95160.28
2024-05-09T04:20:36.742Z,95155.94
2024-05-09T04:23:09.039Z,95158.63
2024-05-09T04:25:36.734Z,95160.28
2024-05-09T04:28:04.031Z,95157.34
2024-05-09T04:30:37.611Z,95156.53
2024-05-09T04:33:09.489Z,95158.41
2024-05-09T04:35:39.095Z,95154.06
2024-05-09T04:38:06.635Z,95154.06
2024-05-09T04:40:36.481Z,95152.19
2024-05-09T04:43:05.616Z,95157.56
2024-05-09T04:45:33.089Z,95153.00
2024-05-09T04:48:00.850Z,95156.53
2024-05-09T04:50:36.172Z,95158.63
2024-05-09T04:53:08.389Z,95156.75
2024-05-09T04:55:37.095Z,95162.16
2024-05-09T04:58:04.497Z,95162.38
2024-05-09T05:00:36.342Z,95149.94
2024-05-09T05:03:08.471Z,95151.59
2024-05-09T05:05:41.153Z,95151.59
2024-05-09T05:08:17.324Z,95152.41
2024-05-09T05:10:46.271Z,95153.47
2024-05-09T05:13:14.707Z,95157.00
2024-05-09T05:15:43.079Z,95150.78
2024-05-09T05:18:10.350Z,95151.59
2024-05-09T05:20:37.562Z,95152.41
2024-05-09T05:23:08.844Z,95149.72
2024-05-09T05:25:36.201Z,95158.63
2024-05-09T05:28:03.363Z,95161.56
2024-05-09T05:30:34.719Z,95163.44
2024-05-09T05:33:02.558Z,95162.38
2024-05-09T05:35:30.008Z,95166.16
2024-05-09T05:37:57.262Z,95179.09
2024-05-09T05:40:32.702Z,95173.44
2024-05-09T05:43:08.164Z,95184.22
2024-05-09T05:45:35.945Z,95184.22
2024-05-09T05:48:04.806Z,95186.94
2024-05-09T05:50:36.364Z,95176.38
2024-05-09T05:53:09.187Z,95185.31
2024-05-09T05:55:39.049Z,95184.50
2024-05-09T05:58:09.881Z,95188.84
2024-05-09T06:00:39.296Z,95187.75
2024-05-09T06:03:09.302Z,95183.44
2024-05-09T06:05:37.620Z,95171.00
2024-05-09T06:08:05.228Z,95191.53
2024-05-09T06:10:38.152Z,95194.47
2024-05-09T06:13:13.306Z,95182.84
2024-05-09T06:15:41.802Z,95188.47
2024-05-09T06:18:10.823Z,95186.59
2024-05-09T06:20:39.254Z,95182.84
2024-05-09T06:23:07.168Z,95180.16
2024-05-09T06:25:35.581Z,95178.28
2024-05-09T06:28:03.498Z,95176.94
2024-05-09T06:30:38.145Z,95170.72
2024-05-09T06:33:10.643Z,95164.53
2024-05-09T06:35:39.684Z,95161.00
2024-05-09T06:38:07.177Z,95162.06
2024-05-09T06:40:38.202Z,95161.84
2024-05-09T06:43:15.021Z,95163.72
2024-05-09T06:45:43.562Z,95162.91
2024-05-09T06:48:11.910Z,95172.88
2024-05-09T06:50:41.071Z,95173.69
2024-05-09T06:53:08.704Z,95175.56
2024-05-09T06:55:36.910Z,95172.06
2024-05-09T06:58:06.715Z,95171.00
2024-05-09T07:00:39.120Z,95165.59
2024-05-09T07:03:15.356Z,95170.72
2024-05-09T07:05:45.540Z,95187.75
2024-05-09T07:08:13.155Z,95177.22
2024-05-09T07:10:40.330Z,95175.34
2024-05-09T07:13:11.587Z,95177.22
2024-05-09T07:15:38.964Z,95175.34
2024-05-09T07:18:13.411Z,95172.72
2024-05-09T07:20:41.057Z,95174.91
2024-05-09T07:23:12.190Z,95180.09
2024-05-09T07:25:40.465Z,95173.28
2024-05-09T07:28:13.450Z,95177.63
2024-05-09T07:30:40.356Z,95174.69
2024-05-09T07:33:07.209Z,95170.34
2024-05-09T07:35:34.240Z,95171.41
2024-05-09T07:38:01.412Z,95173.53
2024-05-09T07:40:34.838Z,95172.44
2024-05-09T07:43:08.386Z,95174.34
2024-05-09T07:52:24.272Z,95170.84
2024-05-09T07:53:39.464Z,95163.53
2024-05-09T07:56:11.395Z,95173.28
2024-05-09T07:58:39.055Z,95164.34
2024-05-09T08:01:06.145Z,95173.28
2024-05-09T08:03:33.495Z,95166.00
2024-05-09T08:06:00.525Z,95172.22
2024-05-09T08:08:27.203Z,95178.44
2024-05-09T08:10:54.447Z,95169.28
2024-05-09T08:13:21.802Z,95170.09
2024-05-09T08:15:49.031Z,95166.34
2024-05-09T08:18:16.245Z,95164.44
2024-05-09T08:20:43.404Z,95162.31
2024-05-09T08:23:11.228Z,95162.91
2024-05-09T08:25:38.340Z,95161.03
2024-05-09T08:28:05.744Z,95158.31
2024-05-09T08:30:36.955Z,95151.03
2024-05-09T08:33:06.622Z,95152.91
2024-05-09T08:35:35.318Z,95146.69
2024-05-09T08:38:03.996Z,95148.56
2024-05-09T08:40:35.405Z,95147.53
2024-05-09T08:43:10.071Z,95149.13
2024-05-09T08:45:40.359Z,95155.13
2024-05-09T08:48:08.930Z,95157.81
2024-05-09T08:50:40.657Z,95159.69
2024-05-09T08:53:08.632Z,95164.84
2024-05-09T08:55:40.289Z,95159.69
2024-05-09T08:58:16.360Z,95158.06
2024-05-09T09:00:46.094Z,95163.44
2024-05-09T09:03:26.604Z,95164.28
2024-05-09T09:06:08.564Z,95158.88
2024-05-09T09:08:39.372Z,95158.06
2024-05-09T09:11:06.808Z,95158.06
2024-05-09T09:13:33.901Z,95162.41
2024-05-09T09:16:01.223Z,95158.06
2024-05-09T09:18:29.056Z,95158.88
2024-05-09T09:20:56.648Z,95162.41
2024-05-09T09:23:23.771Z,95164.03
2024-05-09T09:25:50.979Z,95157.56
2024-05-09T09:28:18.233Z,95158.41
2024-05-09T09:30:45.724Z,95151.13
2024-05-09T09:33:13.034Z,95156.53
2024-05-09T09:35:40.966Z,95160.03
2024-05-09T09:38:09.050Z,95158.75
2024-05-09T09:40:49.090Z,95163.09
2024-05-09T09:43:22.112Z,95155.00
2024-05-09T09:45:52.229Z,95167.97
2024-05-09T09:48:22.208Z,95159.31
2024-05-09T09:50:52.178Z,95169.06
2024-05-09T09:53:20.226Z,95164.50
2024-05-09T09:55:48.740Z,95164.50
2024-05-09T09:58:17.835Z,95169.91
2024-05-09T10:00:45.876Z,95162.59
2024-05-09T10:03:13.222Z,95163.41
2024-05-09T10:05:44.259Z,95161.53
2024-05-09T10:08:16.511Z,95162.34
2024-05-09T10:10:47.044Z,95158.59
2024-05-09T10:13:14.517Z,95163.16
2024-05-09T10:15:50.907Z,95160.22
2024-05-09T10:18:18.690Z,95154.00
2024-05-09T10:20:46.616Z,95160.22
2024-05-09T10:23:32.824Z,95157.53
2024-05-09T10:26:06.559Z,95164.31
2024-05-09T10:28:35.933Z,95159.16
2024-05-09T10:31:10.166Z,95160.78
2024-05-09T10:33:55.915Z,95157.03
2024-05-09T10:36:25.637Z,95157.84
2024-05-09T10:38:54.135Z,95153.50
2024-05-09T10:41:23.204Z,95167.59
2024-05-09T10:43:51.303Z,95163.81
2024-05-09T10:46:18.774Z,95160.88
2024-05-09T10:48:47.113Z,95160.06
2024-05-09T10:51:14.614Z,95160.88
2024-05-09T10:53:43.355Z,95159.78
2024-05-09T10:56:11.308Z,95161.69
2024-05-09T10:58:38.402Z,95151.69
2024-05-09T11:01:07.397Z,95161.44
2024-05-09T11:03:35.836Z,95163.06
2024-05-09T11:06:03.730Z,95158.75
2024-05-09T11:08:32.155Z,95156.84
2024-05-09T11:10:59.996Z,95148.50
2024-05-09T11:13:31.941Z,95142.28
2024-05-09T11:16:00.809Z,95145.00
2024-05-09T11:18:32.310Z,95145.81
2024-05-09T11:21:02.661Z,95144.75
2024-05-09T11:23:29.915Z,95149.06
2024-05-09T11:25:58.841Z,95144.75
2024-05-09T11:28:29.363Z,95141.22
2024-05-09T11:31:07.399Z,95136.38
2024-05-09T11:33:39.312Z,95139.06
2024-05-09T11:36:07.868Z,95140.97
2024-05-09T11:38:35.694Z,95140.97
2024-05-09T11:41:03.825Z,95148.00
2024-05-09T11:43:31.227Z,95144.25
2024-05-09T11:45:58.694Z,95146.13
2024-05-09T11:48:26.784Z,95142.59
2024-05-09T11:50:55.305Z,95147.75
2024-05-09T11:53:22.654Z,95136.97
2024-05-09T11:55:49.898Z,95141.31
2024-05-09T11:58:18.352Z,95141.31
2024-05-09T12:00:46.939Z,95135.91
2024-05-09T12:03:14.873Z,95137.53
2024-05-09T12:05:42.296Z,95125.91
2024-05-09T12:08:10.079Z,95138.34
2024-05-09T12:10:37.720Z,95134.84
2024-05-09T12:13:06.655Z,95137.53
2024-05-09T12:15:38.810Z,95124.84
2024-05-09T12:18:08.024Z,95121.88
2024-05-09T12:20:38.739Z,95120.22
2024-05-09T12:23:09.766Z,95118.34
2024-05-09T12:25:39.281Z,95117.28
2024-05-09T12:28:07.890Z,95111.06
2024-05-09T12:30:38.901Z,95109.19
2024-05-09T12:33:09.838Z,95105.41
2024-05-09T12:35:38.191Z,95105.19
2024-05-09T12:38:05.656Z,95117.63
2024-05-09T12:40:36.876Z,95111.41
2024-05-09T12:43:10.340Z,95110.31
2024-05-09T12:45:39.438Z,95115.72
2024-05-09T12:48:08.336Z,95106.00
2024-05-09T12:50:36.840Z,95104.91
2024-05-09T12:53:05.335Z,95103.03
2024-05-09T12:55:41.176Z,95101.97
2024-05-09T12:58:19.821Z,95103.03
2024-05-09T13:00:47.517Z,95103.84
2024-05-09T13:03:15.139Z,95100.09
2024-05-09T13:05:42.707Z,95099.03
2024-05-09T13:08:10.502Z,95100.91
2024-05-09T13:10:37.629Z,95095.50
2024-05-09T13:13:05.059Z,95103.38
2024-05-09T13:15:33.769Z,95100.91
2024-05-09T13:18:03.163Z,95094.44
2024-05-09T13:20:34.231Z,95096.09
2024-05-09T13:23:05.910Z,95097.69
2024-05-09T13:25:33.885Z,95087.97
2024-05-09T13:28:01.140Z,95086.09
2024-05-09T13:30:35.679Z,95081.47
2024-05-09T13:33:07.539Z,95086.88
2024-05-09T13:35:35.924Z,95079.88
2024-05-09T13:38:04.369Z,95078.78
2024-05-09T13:40:34.865Z,95073.38
2024-05-09T13:43:05.026Z,95068.78
2024-05-09T13:45:33.214Z,95075.00
2024-05-09T13:48:01.382Z,95069.59
2024-05-09T13:50:34.431Z,95068.78
2024-05-09T13:53:05.968Z,95066.91
2024-05-09T13:55:34.417Z,95066.91
2024-05-09T13:58:02.148Z,95062.31
2024-05-09T14:00:41.971Z,95065.03
2024-05-09T14:03:16.355Z,95056.09
2024-05-09T14:05:45.217Z,95063.38
2024-05-09T14:08:12.812Z,95068.78
2024-05-09T14:10:40.035Z,95072.31
2024-05-09T14:13:07.247Z,95065.03
2024-05-09T14:15:34.586Z,95064.78
2024-05-09T14:18:02.569Z,95058.56
2024-05-09T14:20:31.996Z,95056.66
2024-05-09T14:23:01.132Z,95048.81
2024-05-09T14:25:30.824Z,95047.75
2024-05-09T14:27:58.417Z,95057.50
2024-05-09T14:30:34.498Z,95043.16
2024-05-09T14:33:05.890Z,95039.63
2024-05-09T14:35:34.020Z,95045.84
2024-05-09T14:38:01.496Z,95038.56
2024-05-09T14:43:01.098Z,95054.78
2024-05-09T14:45:29.594Z,95047.50
2024-05-09T14:47:56.892Z,95050.19
2024-05-09T14:50:32.546Z,95039.38
2024-05-09T14:53:03.959Z,95040.22
2024-05-09T14:55:31.236Z,95039.38
2024-05-09T14:57:58.391Z,95038.31
2024-05-09T15:00:29.345Z,95032.91
2024-05-09T15:03:00.846Z,95026.44
2024-05-09T15:05:28.071Z,95028.34
2024-05-09T15:07:57.709Z,95022.94
2024-05-09T15:10:33.728Z,95025.63
2024-05-09T15:13:03.624Z,95019.41
2024-05-09T15:15:31.165Z,95023.72
2024-05-09T15:17:58.876Z,95021.03
2024-05-09T15:20:33.261Z,95019.94
2024-05-09T15:23:05.165Z,95015.38
2024-05-09T15:25:36.750Z,95014.56
2024-05-09T15:28:05.539Z,95013.72
2024-05-09T15:30:34.962Z,95005.38
2024-05-09T15:33:02.504Z,95004.56
2024-05-09T15:35:29.596Z,95008.09
2024-05-09T15:37:56.862Z,95008.91
2024-05-09T15:40:34.445Z,95005.13
2024-05-09T15:43:07.462Z,95002.44
2024-05-09T15:45:35.413Z,94996.22
2024-05-09T15:48:03.873Z,94996.22
2024-05-09T15:50:37.437Z,95001.38
2024-05-09T15:53:09.163Z,94999.72
2024-05-09T15:55:37.745Z,95001.38
2024-05-09T15:58:06.164Z,95006.78
2024-05-09T16:00:39.196Z,95002.97
2024-05-09T16:03:10.783Z,94993.25
2024-05-09T16:05:38.720Z,94991.38
2024-05-09T16:08:07.445Z,94985.97
2024-05-09T16:10:35.471Z,94985.97
2024-05-09T16:13:03.668Z,94981.34
2024-05-09T16:15:31.458Z,94987.56
2024-05-09T16:17:59.526Z,94990.28
2024-05-09T16:20:34.979Z,94987.56
2024-05-09T16:23:08.069Z,94981.09
2024-05-09T16:25:35.703Z,94992.75
2024-05-09T16:28:08.364Z,94980.28
2024-05-09T16:30:38.680Z,94989.47
2024-05-09T16:33:06.426Z,94985.69
2024-05-09T16:35:33.651Z,94984.88
2024-05-09T16:38:03.613Z,94985.69
2024-05-09T16:40:37.931Z,94984.88
2024-05-09T16:43:09.063Z,94985.69
2024-05-09T16:45:37.284Z,94975.94
2024-05-09T16:48:05.560Z,94983.81
2024-05-09T16:50:34.838Z,94975.69
2024-05-09T16:53:04.852Z,94974.06
2024-05-09T16:55:32.873Z,94968.66
2024-05-09T16:58:01.024Z,94967.59
2024-05-09T17:00:38.250Z,94967.59
2024-05-09T17:03:12.639Z,94965.13
2024-05-09T17:05:41.064Z,94966.78
2024-05-09T17:08:08.960Z,94968.66
2024-05-09T17:10:36.628Z,94963.25
2024-05-09T17:13:06.784Z,94964.06
2024-05-09T17:15:36.902Z,94953.53
2024-05-09T17:18:06.425Z,94960.00
2024-05-09T17:20:36.413Z,94967.84
2024-05-09T17:23:06.537Z,94968.13
2024-05-09T17:25:34.535Z,94963.53
2024-05-09T17:28:02.393Z,94970.53
2024-05-09T17:30:35.319Z,94967.06
2024-05-09T17:33:07.530Z,94966.22
2024-05-09T17:35:36.334Z,94972.47
2024-05-09T17:38:05.517Z,94961.88
2024-05-09T17:40:35.720Z,94972.69
2024-05-09T17:43:05.802Z,94964.59
2024-05-09T17:45:33.776Z,94973.53
2024-05-09T17:48:01.692Z,94968.94
2024-05-09T17:50:35.422Z,94971.63
2024-05-09T17:53:08.310Z,94970.00
2024-05-09T17:55:36.421Z,94965.09
2024-05-09T17:58:04.853Z,94974.84
2024-05-09T18:00:38.692Z,94968.59
2024-05-09T18:03:09.422Z,94968.59
2024-05-09T18:05:37.510Z,94970.25
2024-05-09T18:08:06.600Z,94975.41
2024-05-09T18:10:37.915Z,94976.22
2024-05-09T18:13:08.277Z,94974.34
2024-05-09T18:15:36.130Z,94975.41
2024-05-09T18:18:04.321Z,94983.50
2024-05-09T18:20:40.517Z,94984.56
2024-05-09T18:23:14.396Z,94978.09
2024-05-09T18:25:42.707Z,94982.69
2024-05-09T18:28:10.342Z,94981.06
2024-05-09T18:30:38.273Z,94977.28
2024-05-09T18:33:07.354Z,94982.69
2024-05-09T18:35:36.575Z,94967.28
2024-05-09T18:38:04.659Z,94973.75
2024-05-09T18:40:35.669Z,94968.59
2024-05-09T18:43:07.505Z,94969.13
2024-05-09T18:45:39.559Z,94965.09
2024-05-09T18:48:09.015Z,94965.91
2024-05-09T18:50:39.915Z,94976.22
2024-05-09T18:53:10.572Z,94969.22
2024-05-09T18:55:38.335Z,94972.50
2024-05-09T18:58:05.554Z,94970.69
2024-05-09T19:00:36.596Z,94962.03
2024-05-09T19:03:07.002Z,94968.28
2024-05-09T19:05:36.069Z,94968.03
2024-05-09T19:08:03.988Z,94965.84
2024-05-09T19:10:34.533Z,94963.97
2024-05-09T19:13:07.245Z,94964.78
2024-05-09T19:15:39.339Z,94969.38
2024-05-09T19:18:07.666Z,94973.25
2024-05-09T19:20:36.617Z,94971.09
2024-05-09T19:23:06.442Z,94971.91
2024-05-09T19:25:34.705Z,94980.84
2024-05-09T19:28:02.105Z,94978.16
2024-05-09T19:30:37.852Z,94987.91
2024-05-09T19:33:09.672Z,94990.06
2024-05-09T19:35:37.575Z,94988.53
2024-05-09T19:38:05.104Z,94988.25
2024-05-09T19:40:34.116Z,94990.13
2024-05-09T19:43:03.274Z,94995.28
2024-05-09T19:45:31.506Z,94994.22
2024-05-09T19:47:59.018Z,94995.63
2024-05-09T19:50:32.795Z,94997.25
2024-05-09T19:53:07.908Z,94993.78
2024-05-09T19:55:35.087Z,95001.31
2024-05-09T19:58:06.425Z,94999.94
2024-05-09T20:00:37.019Z,95002.91
2024-05-09T20:03:06.400Z,94998.63
2024-05-09T20:05:33.916Z,95004.06
2024-05-09T20:08:00.908Z,95007.84
2024-05-09T20:10:32.657Z,95007.28
2024-05-09T20:13:01.839Z,95012.13
2024-05-09T20:15:28.824Z,95008.84
2024-05-09T20:17:55.877Z,95013.16
2024-05-09T20:20:32.687Z,95014.47
2024-05-09T20:23:05.582Z,95013.91
2024-05-09T20:25:32.279Z,95013.09
2024-05-09T20:27:58.999Z,95000.06
2024-05-09T20:30:31.698Z,95010.06
2024-05-09T20:33:01.664Z,95012.22
2024-05-09T20:35:30.333Z,95021.16
2024-05-09T20:37:57.131Z,95015.19
2024-05-09T20:40:29.210Z,95015.69
2024-05-09T20:43:00.465Z,95015.69
2024-05-09T20:45:27.333Z,95017.81
2024-05-09T20:47:54.194Z,95013.47
2024-05-09T20:50:28.989Z,95014.53
2024-05-09T20:53:04.030Z,95011.28
2024-05-09T20:55:31.305Z,95001.53
2024-05-09T20:57:58.596Z,95006.63
2024-05-09T21:00:34.618Z,94997.72
2024-05-09T21:03:07.433Z,94995.00
2024-05-09T21:05:35.307Z,94997.72
2024-05-09T21:08:03.014Z,94995.25
2024-05-09T21:10:33.241Z,94995.50
2024-05-09T21:13:02.979Z,94982.50
2024-05-09T21:15:31.485Z,94989.53
2024-05-09T21:17:58.898Z,94980.63
2024-05-09T21:20:31.274Z,94980.03
2024-05-09T21:23:01.326Z,94983.56
2024-05-09T21:25:29.156Z,94982.75
2024-05-09T21:27:56.563Z,94982.16
2024-05-09T21:30:32.610Z,94982.16
2024-05-09T21:33:09.291Z,94981.34
2024-05-09T21:35:37.583Z,94983.28
2024-05-09T21:38:04.957Z,94987.84
2024-05-09T21:40:35.148Z,94980.56
2024-05-09T21:43:04.910Z,94977.28
2024-05-09T21:45:32.607Z,94985.88
2024-05-09T21:47:59.965Z,94978.59
2024-05-09T21:50:36.076Z,94979.69
2024-05-09T21:53:07.541Z,94979.13
2024-05-09T21:55:34.838Z,94983.69
2024-05-09T21:58:02.759Z,94986.66
2024-05-09T22:00:36.127Z,94982.88
2024-05-09T22:03:06.885Z,94980.19
2024-05-09T22:05:34.752Z,94981.81
2024-05-09T22:08:02.034Z,94986.66
2024-05-09T22:10:34.180Z,94981.25
2024-05-09T22:13:06.836Z,94977.72
2024-05-09T22:15:36.420Z,94983.13
2024-05-09T22:18:05.295Z,94975.28
2024-05-09T22:20:37.337Z,94974.47
2024-05-09T22:23:07.535Z,94977.19
2024-05-09T22:25:35.432Z,94980.13
2024-05-09T22:28:03.254Z,94979.31
2024-05-09T22:30:36.991Z,94980.38
2024-05-09T22:33:08.435Z,94973.91
2024-05-09T22:35:36.660Z,94983.88
2024-05-09T22:38:03.959Z,94975.78
2024-05-09T22:40:41.682Z,94974.41
2024-05-09T22:43:17.864Z,94978.72
2024-05-09T22:45:45.292Z,94975.22
2024-05-09T22:48:12.680Z,94975.47
2024-05-09T22:50:40.790Z,94974.66
2024-05-09T22:53:07.944Z,94971.38
2024-05-09T22:55:35.117Z,94976.53
2024-05-09T22:58:03.139Z,94975.47
2024-05-09T23:00:32.346Z,94979.25
2024-05-09T23:03:01.584Z,94980.88
2024-05-09T23:05:29.585Z,94972.78
2024-05-09T23:07:56.931Z,94972.22
2024-05-09T23:10:32.109Z,94976.78
2024-05-09T23:13:03.927Z,94976.78
2024-05-09T23:15:31.553Z,94968.69
2024-05-09T23:17:59.212Z,94967.88
2024-05-09T23:20:33.928Z,94968.69
2024-05-09T23:23:10.611Z,94968.44
2024-05-09T23:25:39.359Z,94970.31
2024-05-09T23:28:06.943Z,94969.75
2024-05-09T23:30:38.509Z,94969.19
2024-05-09T23:33:09.541Z,94965.44
2024-05-09T23:35:37.305Z,94962.72
2024-05-09T23:38:05.053Z,94967.03
2024-05-09T23:43:02.959Z,94969.19
2024-05-09T23:45:30.148Z,94973.53
2024-05-09T23:47:57.429Z,94970.03
2024-05-09T23:50:33.088Z,94964.63
2024-05-09T23:53:03.647Z,94966.50
2024-05-09T23:55:30.741Z,94962.97
2024-05-09T23:57:58.059Z,94956.75
